Time;durP1;ratioP1;P1;durP2;ratioP2;P2;SDS_P1;SDS_P2;PMS_P1;PMS_P2;Temp;Humidity;BMP_temperature;BMP_pressure;BME280_temperature;BME280_humidity;BME280_pressure;Samples;Min_cycle;Max_cycle;Signal;HPM_P1;HPM_P2
2022/04/27 00:00:31;;;;;;;4.2;3.2;;;;;;;;;;;;;
2022/04/27 00:02:58;;;;;;;3.5;3.2;;;;;;;;;;;;;
2022/04/27 00:05:23;;;;;;;3.2;2.8;;;;;;;;;;;;;
2022/04/27 00:07:48;;;;;;;4.3;3.2;;;;;;;;;;;;;
2022/04/27 00:10:13;;;;;;;3.5;2.9;;;;;;;;;;;;;
2022/04/27 00:12:39;;;;;;;3.5;2.7;;;;;;;;;;;;;
2022/04/27 00:15:04;;;;;;;3.3;3;;;;;;;;;;;;;
2022/04/27 00:17:31;;;;;;;3.5;2.8;;;;;;;;;;;;;
2022/04/27 00:19:56;;;;;;;3.3;2.7;;;;;;;;;;;;;
2022/04/27 00:22:22;;;;;;;3.7;2.8;;;;;;;;;;;;;
2022/04/27 00:24:46;;;;;;;4.9;2.8;;;;;;;;;;;;;
2022/04/27 00:27:12;;;;;;;3.4;2.9;;;;;;;;;;;;;
2022/04/27 00:29:38;;;;;;;3.3;2.9;;;;;;;;;;;;;
2022/04/27 00:32:04;;;;;;;4;2.9;;;;;;;;;;;;;
2022/04/27 00:34:29;;;;;;;3.5;2.9;;;;;;;;;;;;;
2022/04/27 00:36:55;;;;;;;4;3.3;;;;;;;;;;;;;
2022/04/27 00:39:20;;;;;;;3.9;3.1;;;;;;;;;;;;;
2022/04/27 00:42:01;;;;;;;3.4;3;;;;;;;;;;;;;
2022/04/27 00:44:11;;;;;;;3.2;2.8;;;;;;;;;;;;;
2022/04/27 00:46:36;;;;;;;4.1;3;;;;;;;;;;;;;
2022/04/27 00:49:01;;;;;;;3.8;3.2;;;;;;;;;;;;;
2022/04/27 00:51:27;;;;;;;3.7;2.8;;;;;;;;;;;;;
2022/04/27 00:53:54;;;;;;;4.5;3.3;;;;;;;;;;;;;
2022/04/27 00:56:21;;;;;;;4.3;3.2;;;;;;;;;;;;;
2022/04/27 00:58:43;;;;;;;3.6;3.1;;;;;;;;;;;;;
2022/04/27 01:01:08;;;;;;;5.1;3.3;;;;;;;;;;;;;
2022/04/27 01:03:35;;;;;;;3.6;3.2;;;;;;;;;;;;;
2022/04/27 01:06:00;;;;;;;3.5;3.2;;;;;;;;;;;;;
2022/04/27 01:08:25;;;;;;;3.7;3.1;;;;;;;;;;;;;
2022/04/27 01:10:53;;;;;;;4.2;3.1;;;;;;;;;;;;;
2022/04/27 01:13:18;;;;;;;4.8;3.3;;;;;;;;;;;;;
2022/04/27 01:15:46;;;;;;;3.3;3;;;;;;;;;;;;;
2022/04/27 01:18:11;;;;;;;4.3;3.3;;;;;;;;;;;;;
2022/04/27 01:20:44;;;;;;;4.1;3.3;;;;;;;;;;;;;
2022/04/27 01:23:04;;;;;;;3.7;3.2;;;;;;;;;;;;;
2022/04/27 01:25:30;;;;;;;4.6;3.4;;;;;;;;;;;;;
2022/04/27 01:27:55;;;;;;;4;3.6;;;;;;;;;;;;;
2022/04/27 01:30:22;;;;;;;4.2;3.7;;;;;;;;;;;;;
2022/04/27 01:32:47;;;;;;;3.9;3.2;;;;;;;;;;;;;
2022/04/27 01:35:15;;;;;;;4.1;3.7;;;;;;;;;;;;;
2022/04/27 01:40:05;;;;;;;3.9;3.4;;;;;;;;;;;;;
2022/04/27 01:42:34;;;;;;;4.5;3.9;;;;;;;;;;;;;
2022/04/27 01:44:59;;;;;;;4.7;4;;;;;;;;;;;;;
2022/04/27 01:47:25;;;;;;;4.1;3.7;;;;;;;;;;;;;
2022/04/27 01:49:50;;;;;;;4;3.6;;;;;;;;;;;;;
2022/04/27 01:54:41;;;;;;;3.8;3.4;;;;;;;;;;;;;
2022/04/27 01:57:07;;;;;;;4.1;3.7;;;;;;;;;;;;;
2022/04/27 01:59:47;;;;;;;7.5;4.4;;;;;;;;;;;;;
2022/04/27 02:01:58;;;;;;;4.5;4.1;;;;;;;;;;;;;
2022/04/27 02:04:23;;;;;;;4.9;3.8;;;;;;;;;;;;;
2022/04/27 02:06:48;;;;;;;6;4;;;;;;;;;;;;;
2022/04/27 02:09:16;;;;;;;5.2;4.2;;;;;;;;;;;;;
2022/04/27 02:11:41;;;;;;;5.9;4.4;;;;;;;;;;;;;
2022/04/27 02:14:07;;;;;;;4.7;4.2;;;;;;;;;;;;;
2022/04/27 02:16:33;;;;;;;4.4;3.9;;;;;;;;;;;;;
2022/04/27 02:18:58;;;;;;;5.2;4.2;;;;;;;;;;;;;
2022/04/27 02:21:23;;;;;;;5;4.1;;;;;;;;;;;;;
2022/04/27 02:23:49;;;;;;;5;3.8;;;;;;;;;;;;;
2022/04/27 02:26:14;;;;;;;4.3;3.8;;;;;;;;;;;;;
2022/04/27 02:28:39;;;;;;;5.3;4.1;;;;;;;;;;;;;
2022/04/27 02:31:04;;;;;;;6.9;4.5;;;;;;;;;;;;;
2022/04/27 02:33:31;;;;;;;5.7;4.1;;;;;;;;;;;;;
2022/04/27 02:35:56;;;;;;;5.3;4.3;;;;;;;;;;;;;
2022/04/27 02:38:24;;;;;;;5.2;4.4;;;;;;;;;;;;;
2022/04/27 02:40:49;;;;;;;5.1;4.1;;;;;;;;;;;;;
2022/04/27 02:43:16;;;;;;;4.7;4.1;;;;;;;;;;;;;
2022/04/27 02:45:41;;;;;;;4.5;4.1;;;;;;;;;;;;;
2022/04/27 02:48:08;;;;;;;5.9;4;;;;;;;;;;;;;
2022/04/27 02:52:58;;;;;;;4.8;4.1;;;;;;;;;;;;;
2022/04/27 02:55:27;;;;;;;4.6;4.1;;;;;;;;;;;;;
2022/04/27 02:57:52;;;;;;;5.7;4.3;;;;;;;;;;;;;
2022/04/27 03:00:18;;;;;;;4.8;4.2;;;;;;;;;;;;;
2022/04/27 03:02:43;;;;;;;5.4;4.1;;;;;;;;;;;;;
2022/04/27 03:05:08;;;;;;;4.9;4.2;;;;;;;;;;;;;
2022/04/27 03:07:35;;;;;;;4.7;3.9;;;;;;;;;;;;;
2022/04/27 03:10:00;;;;;;;5.6;4;;;;;;;;;;;;;
2022/04/27 03:12:27;;;;;;;4.7;3.9;;;;;;;;;;;;;
2022/04/27 03:14:52;;;;;;;4.2;3.8;;;;;;;;;;;;;
2022/04/27 03:17:17;;;;;;;4.5;4;;;;;;;;;;;;;
2022/04/27 03:19:42;;;;;;;5.6;4.1;;;;;;;;;;;;;
2022/04/27 03:22:08;;;;;;;5.2;3.9;;;;;;;;;;;;;
2022/04/27 03:24:33;;;;;;;6.3;4.3;;;;;;;;;;;;;
2022/04/27 03:26:59;;;;;;;5.1;4.2;;;;;;;;;;;;;
2022/04/27 03:29:24;;;;;;;6;4.3;;;;;;;;;;;;;
2022/04/27 03:31:49;;;;;;;4.9;4;;;;;;;;;;;;;
2022/04/27 03:34:15;;;;;;;4.7;4.2;;;;;;;;;;;;;
2022/04/27 03:36:40;;;;;;;5.7;4.2;;;;;;;;;;;;;
2022/04/27 03:39:06;;;;;;;4.7;4.1;;;;;;;;;;;;;
2022/04/27 03:41:31;;;;;;;5.1;4.6;;;;;;;;;;;;;
2022/04/27 03:43:58;;;;;;;5.8;4.7;;;;;;;;;;;;;
2022/04/27 03:46:23;;;;;;;5.4;4.1;;;;;;;;;;;;;
2022/04/27 03:48:50;;;;;;;5.9;4.3;;;;;;;;;;;;;
2022/04/27 03:51:15;;;;;;;5.4;4.6;;;;;;;;;;;;;
2022/04/27 03:53:40;;;;;;;5.2;4.4;;;;;;;;;;;;;
2022/04/27 03:56:06;;;;;;;5.5;4.4;;;;;;;;;;;;;
2022/04/27 03:58:33;;;;;;;5.7;4.1;;;;;;;;;;;;;
2022/04/27 04:02:36;;;;;;;5.2;4.4;;;;;;;7.05;93.68457;940.215;;;;
2022/04/27 04:05:00;;;;;;;6;5.3;;;;;;;7.09;94.14746;940.2786;;;;
2022/04/27 04:07:25;;;;;;;7.1;4.7;;;;;;;7.25;93.44531;940.2734;;;;
2022/04/27 04:09:55;;;;;;;5.5;4.7;;;;;;;7.31;93.24316;940.3422;;;;
2022/04/27 04:12:28;;;;;;;6.8;5.4;;;;;;;7.31;92.83594;940.3328;;;;
2022/04/27 04:14:55;;;;;;;6.9;5.1;;;;;;;7.28;93.16992;940.3234;;;;
2022/04/27 04:17:20;;;;;;;7.5;5.2;;;;;;;7.36;93.00586;940.3879;;;;
2022/04/27 04:19:50;;;;;;;6.1;5.1;;;;;;;7.37;93.49512;940.3739;;;;
2022/04/27 04:22:15;;;;;;;5.3;4.8;;;;;;;7.46;93.0498;940.3787;;;;
2022/04/27 04:28:29;;;;;;;5;4.5;;;;;;;7.52;92.49707;940.4531;;;;
2022/04/27 04:30:20;;;;;;;11.6;9.5;;;;;;;7.48;92.15625;940.5131;;;;
2022/04/27 04:36:24;;;;;;;6.6;5.2;;;;;;;7.57;92.19141;940.5432;;;;
2022/04/27 04:38:54;;;;;;;5.7;4.9;;;;;;;7.59;92.03418;940.5609;;;;
2022/04/27 04:41:26;;;;;;;5.2;4.1;;;;;;;7.44;92.18457;940.5963;;;;
2022/04/27 04:43:57;;;;;;;6.6;4.8;;;;;;;7.55;92.53711;940.6171;;;;
2022/04/27 04:46:28;;;;;;;7.5;6.7;;;;;;;7.46;92.52832;940.6355;;;;
2022/04/27 04:48:58;;;;;;;6.4;5.8;;;;;;;7.31;92.8125;940.6384;;;;
2022/04/27 04:51:23;;;;;;;7.3;6.5;;;;;;;7.41;92.89258;940.7428;;;;
2022/04/27 04:54:16;;;;;;;6.5;5.7;;;;;;;7.48;92.3623;940.7224;;;;
2022/04/27 04:56:46;;;;;;;22.3;20.2;;;;;;;7.62;92.28906;940.7592;;;;
2022/04/27 04:59:43;;;;;;;10.9;9.9;;;;;;;7.72;92.08398;940.8195;;;;
2022/04/27 05:02:13;;;;;;;6.2;5.1;;;;;;;7.63;92.16699;940.8563;;;;
2022/04/27 05:04:38;;;;;;;5;4.4;;;;;;;7.7;92.24121;940.839;;;;
2022/04/27 05:07:04;;;;;;;5.9;4.1;;;;;;;7.84;92.12012;940.8306;;;;
2022/04/27 05:09:29;;;;;;;5.1;4.3;;;;;;;7.94;91.12012;940.89;;;;
2022/04/27 05:11:57;;;;;;;4.3;3.9;;;;;;;7.99;90.88184;940.8754;;;;
2022/04/27 05:14:28;;;;;;;5.6;4.1;;;;;;;8.12;90.50195;940.9311;;;;
2022/04/27 05:17:00;;;;;;;5.2;3.7;;;;;;;8.07;89.78906;940.8942;;;;
2022/04/27 05:19:25;;;;;;;5.6;4.2;;;;;;;8.08;89.69922;940.9777;;;;
2022/04/27 05:21:54;;;;;;;4.9;4;;;;;;;8.07;90.05957;940.9964;;;;
2022/04/27 05:24:19;;;;;;;6;4.5;;;;;;;8.16;89.7959;941.0414;;;;
2022/04/27 05:26:49;;;;;;;5.8;4.2;;;;;;;8.16;89.2168;941.0056;;;;
2022/04/27 05:32:40;;;;;;;5.4;4.6;;;;;;;8.26;88.41992;941.1264;;;;
2022/04/27 05:34:05;;;;;;;5.4;4.4;;;;;;;8.33;88.47656;941.0708;;;;
2022/04/27 05:36:36;;;;;;;6;4.4;;;;;;;8.41;88.30176;941.1438;;;;
2022/04/27 05:40:18;;;;;;;6;4.8;;;;;;;8.44;88.02539;941.0969;;;;
2022/04/27 05:42:45;;;;;;;5.4;4.8;;;;;;;8.43;88.16895;941.2576;;;;
2022/04/27 05:45:10;;;;;;;5.5;4.6;;;;;;;8.53;87.80273;941.2576;;;;
2022/04/27 05:47:44;;;;;;;4.4;4;;;;;;;8.57;86.84668;941.3108;;;;
2022/04/27 05:50:47;;;;;;;5.6;4.2;;;;;;;8.62;87.16211;941.2511;;;;
2022/04/27 05:53:13;;;;;;;4.3;3.9;;;;;;;8.27;84.97852;941.3544;;;;
2022/04/27 05:55:43;;;;;;;5.1;3.6;;;;;;;8.57;85.40234;941.325;;;;
2022/04/27 05:58:05;;;;;;;4.2;3.8;;;;;;;8.87;84.93848;941.3066;;;;
2022/04/27 06:00:32;;;;;;;4;3.5;;;;;;;9.1;84.31152;941.3313;;;;
2022/04/27 06:03:04;;;;;;;3.9;3.5;;;;;;;9.13;82.04297;941.3494;;;;
2022/04/27 06:05:37;;;;;;;4.4;3.4;;;;;;;9.35;81.67383;941.4152;;;;
2022/04/27 06:08:02;;;;;;;4.4;3.5;;;;;;;9.87;80.47168;941.3767;;;;
2022/04/27 06:10:31;;;;;;;4.3;3.6;;;;;;;9.93;79.13867;941.3588;;;;
2022/04/27 06:13:00;;;;;;;4.4;3.5;;;;;;;9.86;79.36621;941.4014;;;;
2022/04/27 06:15:33;;;;;;;3.1;2.8;;;;;;;9.38;77.88867;941.4133;;;;
2022/04/27 06:18:04;;;;;;;3;2.5;;;;;;;9.04;79.70313;941.4397;;;;
2022/04/27 06:20:33;;;;;;;4;2.8;;;;;;;9.46;80.31641;941.4819;;;;
2022/04/27 06:22:58;;;;;;;4.4;3;;;;;;;9.74;78.56836;941.4419;;;;
2022/04/27 06:25:27;;;;;;;3.1;2.7;;;;;;;9.97;77.59473;941.5065;;;;
2022/04/27 06:28:28;;;;;;;3.2;2.9;;;;;;;10;78.78711;941.4378;;;;
2022/04/27 06:30:44;;;;;;;3.2;2.9;;;;;;;9.45;76.88672;941.5461;;;;
2022/04/27 06:33:14;;;;;;;4.2;2.9;;;;;;;9.16;79.88574;941.5725;;;;
2022/04/27 06:35:42;;;;;;;3;2.8;;;;;;;8.89;81.65527;941.5516;;;;
2022/04/27 06:38:07;;;;;;;3.5;3.2;;;;;;;9.41;80.87793;941.5569;;;;
2022/04/27 06:40:34;;;;;;;5.3;3.1;;;;;;;9.53;79.86328;941.6024;;;;
2022/04/27 06:43:00;;;;;;;6.8;3.1;;;;;;;9.7;80.86328;941.64;;;;
2022/04/27 06:45:27;;;;;;;2.5;2.3;;;;;;;9.42;76.65234;941.6217;;;;
2022/04/27 06:47:50;;;;;;;4.5;3;;;;;;;9.14;77.66113;941.603;;;;
2022/04/27 06:50:17;;;;;;;4.5;2.5;;;;;;;9.06;78.69531;941.6507;;;;
2022/04/27 06:52:45;;;;;;;4.5;2.9;;;;;;;9.1;77.75879;941.6206;;;;
2022/04/27 06:55:07;;;;;;;3.8;3.2;;;;;;;9.34;78.72363;941.5938;;;;
2022/04/27 06:57:38;;;;;;;4.5;4;;;;;;;9.32;78.71973;941.6609;;;;
2022/04/27 07:05:21;;;;;;;4.8;4;;;;;;;9.73;78.35156;941.7273;;;;
2022/04/27 07:07:50;;;;;;;3.5;3.2;;;;;;;10.15;79.07715;941.6555;;;;
2022/04/27 07:10:19;;;;;;;3.5;3.1;;;;;;;10.42;75.82617;941.6614;;;;
2022/04/27 07:12:46;;;;;;;3.8;3.4;;;;;;;10.83;72.70996;941.6583;;;;
2022/04/27 07:15:21;;;;;;;4.4;2.4;;;;;;;12.38;65.89648;941.6406;;;;
2022/04/27 07:17:52;;;;;;;3.1;2.4;;;;;;;14.02;62.14063;941.5705;;;;
2022/04/27 07:20:19;;;;;;;3;2.2;;;;;;;16.29;56.81738;941.5195;;;;
2022/04/27 07:22:51;;;;;;;2.1;1.9;;;;;;;18.76;46.55078;941.5683;;;;
2022/04/27 07:25:21;;;;;;;2.2;1.8;;;;;;;19.89;42.03906;941.5814;;;;
2022/04/27 07:27:47;;;;;;;2;1.8;;;;;;;20.76;41.81738;941.6269;;;;
2022/04/27 07:30:16;;;;;;;1.8;1.7;;;;;;;19.76;41.04688;941.662;;;;
2022/04/27 07:32:47;;;;;;;1.8;1.6;;;;;;;22.2;39.83203;941.6008;;;;
2022/04/27 07:36:04;;;;;;;1.7;1.6;;;;;;;22.04;39.66504;941.6143;;;;
2022/04/27 07:38:29;;;;;;;2;1.8;;;;;;;22.49;37.80371;941.6322;;;;
2022/04/27 07:40:54;;;;;;;1.8;1.7;;;;;;;21.68;35.73242;941.633;;;;
2022/04/27 07:43:24;;;;;;;3.8;2.1;;;;;;;22.11;37.37402;941.6666;;;;
2022/04/27 07:45:53;;;;;;;2.1;1.9;;;;;;;20.57;39.1709;941.6895;;;;
2022/04/27 07:48:18;;;;;;;2.3;2.1;;;;;;;18.29;43.25684;941.6749;;;;
2022/04/27 07:50:47;;;;;;;2.2;2;;;;;;;17.17;46.92773;941.7957;;;;
2022/04/27 07:53:17;;;;;;;2.4;2.2;;;;;;;16.55;47.9375;941.6867;;;;
2022/04/27 07:55:46;;;;;;;2.6;2.4;;;;;;;16.08;51.84082;941.7729;;;;
2022/04/27 07:58:11;;;;;;;2.4;2.2;;;;;;;16.21;50.72363;941.7737;;;;
2022/04/27 08:00:39;;;;;;;2.4;2.2;;;;;;;16.32;49.03516;941.8046;;;;
2022/04/27 08:03:07;;;;;;;2.4;2.2;;;;;;;17.21;49.38965;941.8177;;;;
2022/04/27 08:05:36;;;;;;;3.6;2.3;;;;;;;16.76;53.00977;941.7989;;;;
2022/04/27 08:08:01;;;;;;;2.7;2.3;;;;;;;20.07;42.89648;941.7556;;;;
2022/04/27 08:10:34;;;;;;;2.3;2.1;;;;;;;20.34;43.09766;941.6738;;;;
2022/04/27 08:13:02;;;;;;;2.3;2.1;;;;;;;21.45;39.49414;941.6674;;;;
2022/04/27 08:15:40;;;;;;;2.3;2.1;;;;;;;20.83;40.52637;941.7719;;;;
2022/04/27 08:18:06;;;;;;;2.4;2.2;;;;;;;22.1;37.34961;941.7051;;;;
2022/04/27 08:22:58;;;;;;;2.6;2.4;;;;;;;23.89;33.4043;941.5912;;;;
2022/04/27 08:25:27;;;;;;;2.7;2.5;;;;;;;23.82;34.58691;941.6479;;;;
2022/04/27 08:27:52;;;;;;;2.6;2.2;;;;;;;24.67;32.49512;941.6266;;;;
2022/04/27 08:30:23;;;;;;;2.2;2;;;;;;;25.13;30.47461;941.6064;;;;
2022/04/27 08:32:48;;;;;;;2.3;2.1;;;;;;;25.42;32.63281;941.6708;;;;
2022/04/27 08:35:16;;;;;;;2.8;2;;;;;;;25.61;31.57129;941.6418;;;;
2022/04/27 08:37:44;;;;;;;2.4;2.2;;;;;;;26.14;31.25391;941.6594;;;;
2022/04/27 08:40:17;;;;;;;3;2.2;;;;;;;24.47;31.6084;941.6319;;;;
2022/04/27 08:42:49;;;;;;;2.3;2.1;;;;;;;24.7;33.66406;941.6229;;;;
2022/04/27 08:45:14;;;;;;;2.6;2.4;;;;;;;25.58;30.02148;941.6155;;;;
2022/04/27 08:47:47;;;;;;;3;2.7;;;;;;;26;29.69434;941.5881;;;;
2022/04/27 08:50:19;;;;;;;2.5;2.3;;;;;;;26.07;29.35645;941.5842;;;;
2022/04/27 08:52:49;;;;;;;2.5;2.3;;;;;;;24.62;29.5791;941.6323;;;;
2022/04/27 08:55:18;;;;;;;3.2;2.6;;;;;;;24.68;30.00781;941.5953;;;;
2022/04/27 08:57:52;;;;;;;2.9;2.6;;;;;;;25.61;29.20801;941.6362;;;;
2022/04/27 09:00:20;;;;;;;3.5;2.6;;;;;;;24.19;31.31738;941.6238;;;;
2022/04/27 09:02:55;;;;;;;2.8;2.6;;;;;;;25.34;31.13867;941.6205;;;;
2022/04/27 09:05:24;;;;;;;3.2;2.8;;;;;;;24.71;31.28418;941.593;;;;
2022/04/27 09:07:50;;;;;;;3.1;2.8;;;;;;;23.76;30.80566;941.5892;;;;
2022/04/27 09:10:19;;;;;;;2.7;2.5;;;;;;;24.04;32.4248;941.622;;;;
2022/04/27 09:12:47;;;;;;;4.3;2.9;;;;;;;25.23;32.21777;941.5983;;;;
2022/04/27 09:15:26;;;;;;;2.7;2.5;;;;;;;25.23;30.93066;941.5933;;;;
2022/04/27 09:22:57;;;;;;;5.2;2.9;;;;;;;21.01;37.47852;941.5845;;;;
2022/04/27 09:25:26;;;;;;;3;2.5;;;;;;;20.46;38.7998;941.6216;;;;
2022/04/27 09:27:55;;;;;;;4;3.1;;;;;;;18.68;39.9707;941.5963;;;;
2022/04/27 09:30:21;;;;;;;4.1;3.4;;;;;;;18.18;41.43359;941.5642;;;;
2022/04/27 09:32:46;;;;;;;4.4;3.4;;;;;;;19.21;39.84277;941.5464;;;;
2022/04/27 09:35:13;;;;;;;3.7;3.4;;;;;;;19.03;39.78027;941.5449;;;;
2022/04/27 09:37:44;;;;;;;5.9;3.4;;;;;;;19.1;39.01855;941.6025;;;;
2022/04/27 09:40:09;;;;;;;3.7;3.2;;;;;;;18.11;40.82422;941.5772;;;;
2022/04/27 09:42:35;;;;;;;4;3.6;;;;;;;17.7;43.62891;941.5669;;;;
2022/04/27 09:45:14;;;;;;;4.1;3.3;;;;;;;18.7;40.4834;941.5064;;;;
2022/04/27 09:47:47;;;;;;;4.1;3.6;;;;;;;18.98;43.03516;941.4889;;;;
2022/04/27 09:50:23;;;;;;;3.7;3.3;;;;;;;19.49;39.40137;941.4966;;;;
2022/04/27 09:52:48;;;;;;;5.4;3.5;;;;;;;20.36;37.9502;941.5311;;;;
2022/04/27 09:55:15;;;;;;;3.8;3.2;;;;;;;20.98;36.79883;941.5213;;;;
2022/04/27 09:57:50;;;;;;;4.7;3.4;;;;;;;20.32;34.79395;941.5369;;;;
2022/04/27 10:00:16;;;;;;;4.9;3.7;;;;;;;19.79;37.3877;941.5047;;;;
2022/04/27 10:02:46;;;;;;;3.7;3.3;;;;;;;20.54;36.79785;941.4927;;;;
2022/04/27 10:05:11;;;;;;;3.5;3.2;;;;;;;19.89;39.06445;941.5168;;;;
2022/04/27 10:07:42;;;;;;;4.2;3.4;;;;;;;19.56;39.19922;941.4847;;;;
2022/04/27 10:10:17;;;;;;;4.2;3.7;;;;;;;19.02;39.18457;941.4278;;;;
2022/04/27 10:12:42;;;;;;;3.9;3.2;;;;;;;17.69;39.49707;941.4768;;;;
2022/04/27 10:15:14;;;;;;;4.4;4;;;;;;;17.71;44.36133;941.5353;;;;
2022/04/27 10:17:48;;;;;;;4;3.5;;;;;;;18.37;42.41797;941.4947;;;;
2022/04/27 10:20:18;;;;;;;3.8;3.3;;;;;;;19.01;43.27051;941.4828;;;;
2022/04/27 10:22:43;;;;;;;3.5;3.2;;;;;;;19.94;38.74219;941.522;;;;
2022/04/27 10:25:17;;;;;;;5.1;4.2;;;;;;;20.28;38.16504;941.4617;;;;
2022/04/27 10:27:42;;;;;;;3.6;3;;;;;;;20.91;37.43555;941.4486;;;;
2022/04/27 10:30:07;;;;;;;3.3;3;;;;;;;21.02;35.84277;941.4959;;;;
2022/04/27 10:32:32;;;;;;;3.7;3.1;;;;;;;21.24;35.66113;941.5;;;;
2022/04/27 10:35:01;;;;;;;4.7;3.3;;;;;;;21.79;36.52637;941.4619;;;;
2022/04/27 10:37:26;;;;;;;4.2;3.1;;;;;;;21.05;36.60645;941.3983;;;;
2022/04/27 10:39:51;;;;;;;5;2.8;;;;;;;21.53;36.14258;941.4228;;;;
2022/04/27 10:42:18;;;;;;;3.7;3.4;;;;;;;21.62;34.62695;941.4163;;;;
2022/04/27 10:44:43;;;;;;;3.4;3.1;;;;;;;22.2;34.68359;941.3535;;;;
2022/04/27 10:47:11;;;;;;;4;2.8;;;;;;;21.63;37.7666;941.4697;;;;
2022/04/27 10:49:36;;;;;;;4.7;3.7;;;;;;;21.04;36.05469;941.4601;;;;
2022/04/27 10:52:02;;;;;;;4.7;3.6;;;;;;;19.44;42.03125;941.5266;;;;
2022/04/27 10:54:26;;;;;;;3.8;3.3;;;;;;;19.82;38.84766;941.4694;;;;
2022/04/27 10:56:52;;;;;;;4.3;3.2;;;;;;;19.86;39.81934;941.5472;;;;
2022/04/27 10:59:20;;;;;;;4.6;3.3;;;;;;;19.49;39.14551;941.6038;;;;
2022/04/27 11:01:45;;;;;;;3.8;3.2;;;;;;;19.24;38.85645;941.5914;;;;
2022/04/27 11:04:11;;;;;;;4.9;3;;;;;;;18.8;40.48145;941.5966;;;;
2022/04/27 11:06:37;;;;;;;3.4;3;;;;;;;18.61;40.64941;941.6646;;;;
2022/04/27 11:09:02;;;;;;;4.1;3.7;;;;;;;18.49;40.90527;941.6294;;;;
2022/04/27 11:11:28;;;;;;;4.8;3.6;;;;;;;17.53;43.64746;941.7043;;;;
2022/04/27 11:13:52;;;;;;;3.7;3.2;;;;;;;17.79;43.31348;941.6955;;;;
2022/04/27 11:16:20;;;;;;;4.7;3.5;;;;;;;17.59;43.46777;941.6755;;;;
2022/04/27 11:18:46;;;;;;;5.9;3.6;;;;;;;17.76;41.95313;941.6828;;;;
2022/04/27 11:21:11;;;;;;;5;3.2;;;;;;;17.9;42.90527;941.6242;;;;
2022/04/27 11:23:38;;;;;;;3.4;3;;;;;;;17.77;43.41602;941.6417;;;;
2022/04/27 11:26:03;;;;;;;4.6;3.3;;;;;;;17.79;42.35059;941.6914;;;;
2022/04/27 11:28:31;;;;;;;3.6;3.3;;;;;;;18.03;42.09375;941.6678;;;;
2022/04/27 11:30:58;;;;;;;4.5;3.2;;;;;;;19.38;40.45215;941.6404;;;;
2022/04/27 11:33:24;;;;;;;4.2;3;;;;;;;19.2;39.67871;941.6161;;;;
2022/04/27 11:35:54;;;;;;;3.8;3.4;;;;;;;18.65;41.0957;941.6169;;;;
2022/04/27 11:38:19;;;;;;;3.9;3.3;;;;;;;18.36;41.77734;941.6342;;;;
2022/04/27 11:40:52;;;;;;;4.2;3.1;;;;;;;18.3;41.7832;941.7158;;;;
2022/04/27 11:43:16;;;;;;;4.4;3.3;;;;;;;18.39;41.16406;941.7411;;;;
2022/04/27 11:45:47;;;;;;;3.5;3.1;;;;;;;17.99;41.97461;941.76;;;;
2022/04/27 11:48:12;;;;;;;3.4;3.1;;;;;;;18.38;40.90723;941.705;;;;
2022/04/27 11:50:42;;;;;;;3.2;2.7;;;;;;;18.33;41.59961;941.7533;;;;
2022/04/27 11:53:13;;;;;;;3.4;3.1;;;;;;;18.41;41.56055;941.7698;;;;
2022/04/27 11:55:38;;;;;;;3.9;3.5;;;;;;;17.25;43.51563;941.7314;;;;
2022/04/27 11:58:05;;;;;;;3.2;2.9;;;;;;;17.13;45.37012;941.6954;;;;
2022/04/27 12:00:31;;;;;;;4.4;3.2;;;;;;;16.62;46.02344;941.6928;;;;
2022/04/27 12:03:03;;;;;;;3.5;3;;;;;;;17.67;43.37109;941.7079;;;;
2022/04/27 12:05:26;;;;;;;3.2;2.9;;;;;;;19.25;39.84668;941.6178;;;;
2022/04/27 12:07:55;;;;;;;3.2;2.9;;;;;;;20.17;39.00781;941.6725;;;;
2022/04/27 12:10:20;;;;;;;3.6;3;;;;;;;20.11;36.90234;941.6828;;;;
2022/04/27 12:12:49;;;;;;;3.7;3.2;;;;;;;20.08;37.96191;941.6041;;;;
2022/04/27 12:15:21;;;;;;;3.6;3;;;;;;;19.49;38.75;941.6661;;;;
2022/04/27 12:17:57;;;;;;;3.3;2.9;;;;;;;20.13;37.54492;941.7017;;;;
2022/04/27 12:20:37;;;;;;;3.6;2.8;;;;;;;20.34;38.12305;941.6738;;;;
2022/04/27 12:22:57;;;;;;;3;2.6;;;;;;;20.46;36.04297;941.7162;;;;
2022/04/27 12:25:27;;;;;;;2.9;2.6;;;;;;;20.62;36.66406;941.6591;;;;
2022/04/27 12:27:59;;;;;;;3.4;3;;;;;;;20.37;36.70117;941.7938;;;;
2022/04/27 12:30:31;;;;;;;3.5;3.2;;;;;;;19.09;40.7627;941.7497;;;;
2022/04/27 12:32:58;;;;;;;3.4;3;;;;;;;19.34;41.36914;941.7907;;;;
2022/04/27 12:37:55;;;;;;;4.8;4;;;;;;;18.99;41.62695;941.6858;;;;
2022/04/27 12:40:29;;;;;;;4.4;3.8;;;;;;;19.15;42.0498;941.7195;;;;
2022/04/27 12:42:54;;;;;;;5.1;4.6;;;;;;;18.38;44.85938;941.7961;;;;
2022/04/27 12:45:21;;;;;;;5.1;4.4;;;;;;;17.73;43.64551;941.6937;;;;
2022/04/27 12:47:50;;;;;;;4.5;4.1;;;;;;;17.53;45.78223;941.7737;;;;
2022/04/27 12:50:24;;;;;;;5.4;4.1;;;;;;;17.61;46.08105;941.6986;;;;
2022/04/27 12:52:56;;;;;;;4.8;4.3;;;;;;;18.03;45.31152;941.7468;;;;
2022/04/27 12:55:24;;;;;;;4.9;4.4;;;;;;;17.81;46.60156;941.6871;;;;
2022/04/27 12:57:49;;;;;;;4.6;4.2;;;;;;;17.26;45.68457;941.6936;;;;
2022/04/27 13:00:16;;;;;;;5.4;4.6;;;;;;;17.23;46.41211;941.7172;;;;
2022/04/27 13:02:46;;;;;;;4.7;4;;;;;;;17.38;46.0918;941.6624;;;;
2022/04/27 13:05:18;;;;;;;5.7;4.5;;;;;;;17.57;45.13672;941.6678;;;;
2022/04/27 13:07:49;;;;;;;5.2;4.3;;;;;;;18.05;45.24512;941.7449;;;;
2022/04/27 13:12:46;;;;;;;5.4;4.6;;;;;;;17.7;44.71973;941.6409;;;;
2022/04/27 13:15:17;;;;;;;4.8;4.3;;;;;;;17.47;47.22754;941.7285;;;;
2022/04/27 13:17:42;;;;;;;5;4.1;;;;;;;17.63;44.91113;941.6222;;;;
2022/04/27 13:20:13;;;;;;;4.4;3.9;;;;;;;17.9;44.24219;941.7078;;;;
2022/04/27 13:22:41;;;;;;;5.4;3.8;;;;;;;18.13;43.27734;941.5722;;;;
2022/04/27 13:25:14;;;;;;;4.2;3.6;;;;;;;18.13;43.06836;941.6262;;;;
2022/04/27 13:27:45;;;;;;;5.2;3.8;;;;;;;18.09;44.05176;941.5944;;;;
2022/04/27 13:30:17;;;;;;;4.3;3.7;;;;;;;18.14;43.27832;941.4801;;;;
2022/04/27 13:32:54;;;;;;;4.6;4.1;;;;;;;17.91;43.74414;941.5652;;;;
2022/04/27 13:35:19;;;;;;;4.1;3.7;;;;;;;18.05;44.95313;941.558;;;;
2022/04/27 13:37:49;;;;;;;4.9;4;;;;;;;17.81;45.5791;941.5945;;;;
2022/04/27 13:40:21;;;;;;;4.7;3.9;;;;;;;18.01;43.74219;941.538;;;;
2022/04/27 13:42:52;;;;;;;5;4.2;;;;;;;17.96;47.29004;941.5952;;;;
2022/04/27 13:45:25;;;;;;;4.2;3.8;;;;;;;17.97;44.50391;941.5403;;;;
2022/04/27 13:47:49;;;;;;;5.1;4;;;;;;;17.29;47.21973;941.5087;;;;
2022/04/27 13:50:18;;;;;;;4.5;4.1;;;;;;;16.79;48.84375;941.5806;;;;
2022/04/27 13:52:43;;;;;;;5.2;3.9;;;;;;;16.97;48.85156;941.572;;;;
2022/04/27 13:55:15;;;;;;;4;3.5;;;;;;;17.31;46.36328;941.5327;;;;
2022/04/27 13:57:52;;;;;;;5.4;4;;;;;;;17.28;46.69531;941.4856;;;;
2022/04/27 14:00:17;;;;;;;4.1;3.7;;;;;;;16.98;48.32129;941.5172;;;;
2022/04/27 14:02:50;;;;;;;4.4;3.9;;;;;;;16.88;46.58301;941.5528;;;;
2022/04/27 14:05:17;;;;;;;4.6;4.2;;;;;;;16.56;47.92773;941.6038;;;;
2022/04/27 14:07:44;;;;;;;4.2;3.8;;;;;;;16.56;48.29785;941.615;;;;
2022/04/27 14:10:09;;;;;;;4.5;4.1;;;;;;;16.46;48.57715;941.582;;;;
2022/04/27 14:15:16;;;;;;;4.1;3.7;;;;;;;16.79;48.66992;941.5098;;;;
2022/04/27 14:20:16;;;;;;;3.5;3.2;;;;;;;16.52;47.86523;941.5181;;;;
2022/04/27 14:22:47;;;;;;;4.7;3.2;;;;;;;16.56;47.9043;941.5635;;;;
2022/04/27 14:25:17;;;;;;;4.8;3.4;;;;;;;16.71;45.83594;941.4864;;;;
2022/04/27 14:27:47;;;;;;;4.2;3.5;;;;;;;16.8;46.52832;941.5137;;;;
2022/04/27 14:30:17;;;;;;;3.4;3;;;;;;;16.91;47.22363;941.5315;;;;
2022/04/27 14:32:51;;;;;;;3.9;3.3;;;;;;;16.86;46.22266;941.4941;;;;
2022/04/27 14:35:16;;;;;;;3.5;3.2;;;;;;;16.91;46.59766;941.5759;;;;
2022/04/27 14:37:50;;;;;;;3.2;2.9;;;;;;;16.87;46.72168;941.5449;;;;
2022/04/27 14:40:14;;;;;;;3.3;3;;;;;;;17.02;46.39063;941.6063;;;;
2022/04/27 14:42:40;;;;;;;3.3;3;;;;;;;16.98;45.06445;941.6379;;;;
2022/04/27 14:45:12;;;;;;;4.1;3.2;;;;;;;16.83;45.95313;941.6086;;;;
2022/04/27 14:47:44;;;;;;;3.6;3;;;;;;;16.58;47.15332;941.6358;;;;
2022/04/27 14:50:17;;;;;;;3.4;2.8;;;;;;;16.72;46.3584;941.6206;;;;
2022/04/27 14:52:49;;;;;;;7.4;3;;;;;;;16.72;46.56641;941.5933;;;;
2022/04/27 14:55:15;;;;;;;3.6;3.3;;;;;;;16.59;47.36328;941.6019;;;;
2022/04/27 14:57:46;;;;;;;3.5;3;;;;;;;16.35;48.51758;941.6597;;;;
2022/04/27 15:00:13;;;;;;;3.6;3;;;;;;;16.16;48.39258;941.6785;;;;
2022/04/27 15:02:38;;;;;;;3.8;3.4;;;;;;;16.17;48.92578;941.6077;;;;
2022/04/27 15:05:03;;;;;;;4;3.4;;;;;;;16.24;48.66699;941.6566;;;;
2022/04/27 15:07:30;;;;;;;4.6;3.1;;;;;;;16.05;49.07422;941.6783;;;;
2022/04/27 15:09:55;;;;;;;3.6;3.2;;;;;;;15.99;48.03809;941.6631;;;;
2022/04/27 15:12:20;;;;;;;4;3.4;;;;;;;15.49;49.34668;941.6608;;;;
2022/04/27 15:14:50;;;;;;;5.3;3.4;;;;;;;15.11;50.33008;941.6069;;;;
2022/04/27 15:17:15;;;;;;;3.5;3.1;;;;;;;15.18;49.53125;941.6644;;;;
2022/04/27 15:22:41;;;;;;;3.3;3;;;;;;;15.36;49.29785;941.6818;;;;
2022/04/27 15:24:40;;;;;;;3.7;2.8;;;;;;;15.29;49.15039;941.6667;;;;
2022/04/27 15:27:08;;;;;;;3.9;3.3;;;;;;;15.15;48.78809;941.6091;;;;
2022/04/27 15:29:31;;;;;;;3.4;2.9;;;;;;;15.2;49.9707;941.6234;;;;
2022/04/27 15:31:59;;;;;;;3.2;2.8;;;;;;;15.32;49.26953;941.7397;;;;
2022/04/27 15:34:25;;;;;;;3.4;2.8;;;;;;;15.36;48.52246;941.7083;;;;
2022/04/27 15:36:53;;;;;;;3.3;2.8;;;;;;;15.56;48.11816;941.7536;;;;
2022/04/27 15:39:23;;;;;;;3.8;3.1;;;;;;;15.59;48.96484;941.7561;;;;
2022/04/27 15:41:48;;;;;;;2.9;2.6;;;;;;;15.53;48.17188;941.7786;;;;
2022/04/27 15:44:19;;;;;;;3.7;3;;;;;;;15.69;48.33984;941.8283;;;;
2022/04/27 15:46:44;;;;;;;3.4;2.9;;;;;;;15.65;48.26758;941.8926;;;;
2022/04/27 15:49:12;;;;;;;4.1;2.8;;;;;;;15.79;47.80859;941.8823;;;;
2022/04/27 15:51:37;;;;;;;3;2.7;;;;;;;15.83;47.99707;941.8929;;;;
2022/04/27 15:54:05;;;;;;;3;2.7;;;;;;;15.88;47.5752;941.9249;;;;
2022/04/27 15:56:30;;;;;;;2.8;2.6;;;;;;;15.84;47.31641;941.9708;;;;
2022/04/27 15:59:02;;;;;;;2.7;2.5;;;;;;;15.78;48.07324;941.9885;;;;
2022/04/27 16:01:22;;;;;;;3.5;2.8;;;;;;;15.56;47.85156;942.0217;;;;
2022/04/27 16:03:47;;;;;;;3.6;2.8;;;;;;;15.44;48.04785;942.0212;;;;
2022/04/27 16:06:16;;;;;;;3.2;2.9;;;;;;;15.23;48.30078;942.0761;;;;
2022/04/27 16:08:48;;;;;;;3.4;2.8;;;;;;;15.37;48.52539;942.0645;;;;
2022/04/27 16:11:13;;;;;;;3.3;3;;;;;;;15.38;48.87109;942.1439;;;;
2022/04/27 16:13:41;;;;;;;3.2;2.9;;;;;;;15.27;49.60938;942.157;;;;
2022/04/27 16:16:07;;;;;;;3.5;3.1;;;;;;;15.31;49.53418;942.1514;;;;
2022/04/27 16:18:36;;;;;;;3.2;2.9;;;;;;;15.29;49.60059;942.1121;;;;
2022/04/27 16:23:30;;;;;;;3.2;2.9;;;;;;;15.19;50.57031;942.0959;;;;
2022/04/27 16:25:55;;;;;;;3.1;2.6;;;;;;;15.09;50.63965;942.1917;;;;
2022/04/27 16:28:21;;;;;;;3.5;2.9;;;;;;;15.17;51.15625;942.2028;;;;
2022/04/27 16:30:46;;;;;;;2.9;2.6;;;;;;;15.28;50.87988;942.19;;;;
2022/04/27 16:33:16;;;;;;;3.2;2.7;;;;;;;15.28;50.16406;942.1964;;;;